aviador You're here:

YLIS Decoded Metar

in
Report Time2018-07-19 05:00:00
UTC Time2018-07-19 05:38:17
Flight Rules vfr VFR
Wind360° at 09 kt
W.Decomp.*RWY 33: 7.8 kt HW 4.5 kt RCW
Visibility9999 m
Phenomena:N/A
Clouds:N/A
Expected CloudBase > 9,600 ft AGL from Temp-Dew spread
CeilingNone
Temp24°C
Dew Point00°C (21% RH)
AAT18.8°C
QNH1016 hPa
Raw Report
METAR YLIS 190500Z AUTO 36009KT 9999 // NCD 24/M00 Q1016=

Extra information for YLIS:More info

Social comments